createdAt,value
2022-11-15T00:00:51.036Z,3.90
2022-11-15T00:03:19.376Z,3.50
2022-11-15T00:05:47.709Z,3.83
2022-11-15T00:08:15.836Z,4.00
2022-11-15T00:10:44.075Z,3.87
2022-11-15T00:13:14.329Z,4.17
2022-11-15T00:15:43.044Z,3.73
2022-11-15T00:18:14.164Z,3.87
2022-11-15T00:20:42.377Z,3.63
2022-11-15T00:23:10.453Z,3.90
2022-11-15T00:25:38.545Z,4.10
2022-11-15T00:28:06.659Z,3.57
2022-11-15T00:30:36.815Z,3.83
2022-11-15T00:33:05.240Z,3.90
2022-11-15T00:35:34.295Z,4.20
2022-11-15T00:38:02.519Z,3.90
2022-11-15T00:40:30.706Z,3.33
2022-11-15T00:42:58.825Z,4.17
2022-11-15T00:45:27.248Z,3.60
2022-11-15T00:47:56.756Z,3.60
2022-11-15T00:50:25.245Z,3.23
2022-11-15T00:52:53.398Z,3.97
2022-11-15T00:55:21.748Z,3.83
2022-11-15T00:57:49.821Z,3.20
2022-11-15T01:00:18.759Z,3.13
2022-11-15T01:02:46.847Z,3.50
2022-11-15T01:05:16.492Z,3.33
2022-11-15T01:07:44.583Z,3.40
2022-11-15T01:10:12.666Z,3.60
2022-11-15T01:12:40.903Z,3.97
2022-11-15T01:15:09.762Z,3.60
2022-11-15T01:17:37.823Z,3.30
2022-11-15T01:20:06.484Z,3.80
2022-11-15T01:22:35.994Z,3.30
2022-11-15T01:25:04.162Z,3.00
2022-11-15T01:27:32.230Z,3.27
2022-11-15T01:30:00.301Z,3.70
2022-11-15T01:32:28.416Z,3.40
2022-11-15T01:34:56.501Z,3.40
2022-11-15T01:37:24.536Z,3.40
2022-11-15T01:39:53.981Z,3.10
2022-11-15T01:42:22.041Z,3.57
2022-11-15T01:44:50.583Z,3.00
2022-11-15T01:47:19.518Z,3.00
2022-11-15T01:49:54.245Z,3.77
2022-11-15T01:52:23.091Z,3.70
2022-11-15T01:54:54.768Z,3.60
2022-11-15T01:57:22.886Z,3.20
2022-11-15T01:59:51.006Z,2.97
2022-11-15T02:02:19.139Z,3.27
2022-11-15T02:04:48.052Z,3.50
2022-11-15T02:07:17.959Z,3.43
2022-11-15T02:09:46.107Z,3.10
2022-11-15T02:12:16.134Z,3.13
2022-11-15T02:14:45.169Z,3.20
2022-11-15T02:17:23.523Z,3.27
2022-11-15T02:20:19.321Z,3.13
2022-11-15T02:22:53.191Z,3.00
2022-11-15T02:25:32.656Z,3.20
2022-11-15T02:28:19.974Z,3.07
2022-11-15T02:30:50.371Z,3.23
2022-11-15T02:33:27.014Z,3.20
2022-11-15T02:35:59.483Z,2.93
2022-11-15T02:38:32.039Z,3.40
2022-11-15T02:41:01.357Z,3.03
2022-11-15T02:43:49.374Z,3.10
2022-11-15T02:46:21.405Z,3.30
2022-11-15T02:48:49.540Z,3.27
2022-11-15T02:51:17.712Z,2.90
2022-11-15T02:53:45.809Z,3.53
2022-11-15T02:56:14.340Z,2.70
2022-11-15T02:58:54.718Z,3.07
2022-11-15T03:01:30.456Z,2.80
2022-11-15T03:04:02.774Z,3.23
2022-11-15T03:06:35.355Z,2.73
2022-11-15T03:09:06.447Z,2.47
2022-11-15T03:11:35.477Z,3.30
2022-11-15T03:14:05.234Z,2.90
2022-11-15T03:16:36.797Z,2.97
2022-11-15T03:19:07.064Z,3.30
2022-11-15T03:21:35.180Z,2.90
2022-11-15T03:24:05.154Z,2.63
2022-11-15T03:26:33.286Z,3.17
2022-11-15T03:29:02.757Z,2.80
2022-11-15T03:31:58.348Z,2.87
2022-11-15T03:34:30.013Z,2.73
2022-11-15T03:36:58.163Z,3.37
2022-11-15T03:39:26.308Z,3.00
2022-11-15T03:41:58.844Z,2.60
2022-11-15T03:44:33.978Z,2.87
2022-11-15T03:47:04.907Z,3.30
2022-11-15T03:49:35.582Z,2.83
2022-11-15T03:52:04.439Z,3.67
2022-11-15T03:54:32.664Z,2.90
2022-11-15T03:57:00.743Z,2.90
2022-11-15T03:59:28.881Z,3.00
2022-11-15T04:01:57.001Z,3.50
2022-11-15T04:04:25.252Z,2.70
2022-11-15T04:06:54.821Z,2.80
2022-11-15T04:09:22.953Z,3.03
2022-11-15T04:11:51.085Z,2.90
2022-11-15T04:14:19.207Z,2.83
2022-11-15T04:16:47.297Z,3.03
2022-11-15T04:19:38.072Z,3.03
2022-11-15T04:22:29.180Z,3.00
2022-11-15T04:24:57.239Z,2.80
2022-11-15T04:27:25.336Z,3.03
2022-11-15T04:29:53.509Z,4.10
2022-11-15T04:32:21.662Z,2.87
2022-11-15T04:34:49.803Z,3.20
2022-11-15T04:37:19.420Z,2.87
2022-11-15T04:39:53.206Z,3.00
2022-11-15T04:42:21.346Z,3.00
2022-11-15T04:44:49.442Z,3.17
2022-11-15T04:47:17.832Z,3.10
2022-11-15T04:49:48.664Z,2.73
2022-11-15T04:52:18.265Z,2.90
2022-11-15T04:54:46.366Z,3.10
2022-11-15T04:57:14.464Z,2.73
2022-11-15T04:59:42.580Z,2.90
2022-11-15T05:02:10.705Z,3.70
2022-11-15T05:04:37.866Z,3.00
2022-11-15T05:07:06.317Z,2.60
2022-11-15T05:09:35.854Z,3.10
2022-11-15T05:12:03.999Z,3.10
2022-11-15T05:14:32.110Z,2.87
2022-11-15T05:17:00.239Z,3.50
2022-11-15T05:19:28.373Z,3.33
2022-11-15T05:21:56.515Z,3.33
2022-11-15T05:24:24.660Z,3.73
2022-11-15T05:26:54.181Z,3.63
2022-11-15T05:29:22.385Z,3.40
2022-11-15T05:31:50.601Z,3.40
2022-11-15T05:34:19.193Z,3.40
2022-11-15T05:36:47.640Z,3.10
2022-11-15T05:39:15.780Z,3.40
2022-11-15T05:41:45.189Z,3.13
2022-11-15T05:44:15.809Z,3.20
2022-11-15T05:46:43.900Z,3.30
2022-11-15T05:49:13.333Z,3.20
2022-11-15T05:51:41.571Z,3.13
2022-11-15T05:54:09.667Z,3.10
2022-11-15T05:56:37.973Z,2.80
2022-11-15T05:59:07.200Z,3.30
2022-11-15T06:01:51.613Z,2.93
2022-11-15T06:04:19.810Z,2.67
2022-11-15T06:06:47.945Z,2.73
2022-11-15T06:09:16.084Z,3.17
2022-11-15T06:11:44.190Z,3.10
2022-11-15T06:14:12.343Z,2.93
2022-11-15T06:16:40.600Z,2.80
2022-11-15T06:19:10.137Z,3.20
2022-11-15T06:21:38.305Z,2.97
2022-11-15T06:24:07.133Z,2.87
2022-11-15T06:26:35.204Z,2.77
2022-11-15T06:29:04.981Z,2.97
2022-11-15T06:31:33.193Z,3.30
2022-11-15T06:34:01.325Z,2.93
2022-11-15T06:36:30.823Z,2.90
2022-11-15T06:38:59.112Z,3.20
2022-11-15T06:41:27.261Z,3.03
2022-11-15T06:43:55.416Z,2.73
2022-11-15T06:46:23.537Z,2.83
2022-11-15T06:48:52.954Z,2.53
2022-11-15T06:51:21.082Z,2.80
2022-11-15T06:53:50.547Z,3.30
2022-11-15T06:56:18.664Z,2.80
2022-11-15T06:58:47.058Z,3.10
2022-11-15T07:01:15.239Z,2.53
2022-11-15T07:03:43.869Z,2.80
2022-11-15T07:06:12.219Z,2.77
2022-11-15T07:08:40.360Z,2.90
2022-11-15T07:11:10.137Z,3.10
2022-11-15T07:13:38.821Z,3.20
2022-11-15T07:16:07.481Z,2.50
2022-11-15T07:18:36.345Z,2.90
2022-11-15T07:21:05.028Z,3.17
2022-11-15T07:23:40.496Z,3.10
2022-11-15T07:26:10.156Z,2.60
2022-11-15T07:28:38.609Z,2.70
2022-11-15T07:31:07.432Z,2.50
2022-11-15T07:33:35.639Z,2.63
2022-11-15T07:36:04.042Z,2.33
2022-11-15T07:38:32.387Z,2.20
2022-11-15T07:41:00.976Z,2.30
2022-11-15T07:43:31.042Z,2.70
2022-11-15T07:45:59.922Z,2.50
2022-11-15T07:48:40.239Z,2.53
2022-11-15T07:51:14.303Z,2.77
2022-11-15T07:53:42.931Z,2.20
2022-11-15T07:56:11.856Z,2.60
2022-11-15T07:58:41.402Z,2.17
2022-11-15T08:01:10.996Z,2.50
2022-11-15T08:03:39.330Z,2.20
2022-11-15T08:06:07.795Z,2.00
2022-11-15T08:08:35.980Z,2.47
2022-11-15T08:11:04.381Z,2.27
2022-11-15T08:13:33.018Z,2.40
2022-11-15T08:16:02.937Z,2.40
2022-11-15T08:18:32.408Z,2.30
2022-11-15T08:21:01.499Z,2.40
2022-11-15T08:23:30.218Z,2.17
2022-11-15T08:26:03.282Z,2.47
2022-11-15T08:28:31.498Z,2.70
2022-11-15T08:30:59.633Z,2.40
2022-11-15T08:33:29.526Z,2.20
2022-11-15T08:35:58.690Z,2.10
2022-11-15T08:38:26.850Z,2.13
2022-11-15T08:40:55.332Z,2.03
2022-11-15T08:43:23.401Z,2.20
2022-11-15T08:45:51.486Z,2.10
2022-11-15T08:48:19.890Z,1.83
2022-11-15T08:50:49.531Z,2.07
2022-11-15T08:53:17.629Z,2.10
2022-11-15T08:55:45.717Z,2.60
2022-11-15T08:58:13.850Z,2.10
2022-11-15T09:00:42.050Z,2.17
2022-11-15T09:03:11.305Z,1.97
2022-11-15T09:05:39.643Z,2.20
2022-11-15T09:08:32.817Z,1.67
2022-11-15T09:10:57.330Z,1.73
2022-11-15T09:13:25.481Z,1.80
2022-11-15T09:15:53.783Z,1.90
2022-11-15T09:18:58.775Z,2.50
2022-11-15T09:21:26.816Z,1.97
2022-11-15T09:23:54.978Z,2.00
2022-11-15T09:26:23.037Z,2.00
2022-11-15T09:28:51.164Z,2.13
2022-11-15T09:31:19.516Z,1.90
2022-11-15T09:33:50.672Z,1.97
2022-11-15T09:36:20.569Z,1.70
2022-11-15T09:38:48.651Z,2.00
2022-11-15T09:41:46.535Z,1.87
2022-11-15T09:44:31.748Z,1.97
2022-11-15T09:47:01.993Z,1.47
2022-11-15T09:49:30.205Z,1.67
2022-11-15T09:51:59.652Z,1.80
2022-11-15T09:57:22.691Z,1.80
2022-11-15T10:00:12.383Z,2.17
2022-11-15T10:03:04.954Z,1.90
2022-11-15T10:05:33.112Z,1.90
2022-11-15T10:08:05.736Z,1.90
2022-11-15T10:10:38.021Z,1.67
2022-11-15T10:13:06.158Z,1.43
2022-11-15T10:15:34.443Z,1.53
2022-11-15T10:18:08.555Z,1.43
2022-11-15T10:20:41.365Z,1.80
2022-11-15T10:23:25.662Z,1.70
2022-11-15T10:25:54.844Z,1.50
2022-11-15T10:28:24.629Z,1.40
2022-11-15T10:30:54.420Z,1.70
2022-11-15T10:33:29.171Z,1.40
2022-11-15T10:36:20.221Z,1.43
2022-11-15T10:38:55.949Z,2.00
2022-11-15T10:41:24.701Z,1.63
2022-11-15T10:44:09.686Z,1.50
2022-11-15T10:46:47.543Z,1.33
2022-11-15T10:49:17.323Z,1.30
2022-11-15T10:51:47.602Z,1.50
2022-11-15T10:54:21.254Z,1.40
2022-11-15T10:56:53.276Z,1.60
2022-11-15T10:59:25.662Z,1.27
2022-11-15T11:01:53.680Z,1.40
2022-11-15T11:04:21.753Z,1.40
2022-11-15T11:06:51.264Z,1.30
2022-11-15T11:09:33.709Z,1.20
2022-11-15T11:12:02.219Z,1.13
2022-11-15T11:14:32.341Z,1.50
2022-11-15T11:17:05.242Z,1.60
2022-11-15T11:19:41.787Z,1.50
2022-11-15T11:22:14.463Z,1.50
2022-11-15T11:24:46.996Z,1.27
2022-11-15T11:27:20.985Z,1.47
2022-11-15T11:30:02.867Z,1.57
2022-11-15T11:32:42.424Z,1.07
2022-11-15T11:35:14.236Z,1.30
2022-11-15T11:37:46.493Z,1.13
2022-11-15T11:40:22.889Z,1.60
2022-11-15T11:43:00.205Z,1.13
2022-11-15T11:45:50.994Z,1.50
2022-11-15T11:48:25.882Z,1.47
2022-11-15T11:50:53.908Z,1.07
2022-11-15T11:53:26.520Z,1.27
2022-11-15T11:55:56.567Z,0.97
2022-11-15T11:58:30.738Z,1.03
2022-11-15T12:01:02.237Z,1.27
2022-11-15T12:03:41.866Z,1.00
2022-11-15T12:06:16.791Z,1.20
2022-11-15T12:08:48.175Z,1.23
2022-11-15T12:11:19.591Z,0.93
2022-11-15T12:13:47.794Z,1.27
2022-11-15T12:16:18.398Z,1.20
2022-11-15T12:18:51.797Z,1.03
2022-11-15T12:21:28.251Z,1.13
2022-11-15T12:23:58.203Z,1.30
2022-11-15T12:26:28.717Z,1.17
2022-11-15T12:29:07.420Z,1.10
2022-11-15T12:31:39.487Z,1.10
2022-11-15T12:34:17.046Z,1.10
2022-11-15T12:36:45.305Z,1.50
2022-11-15T12:39:13.472Z,1.10
2022-11-15T12:41:43.250Z,1.20
2022-11-15T12:44:13.968Z,0.90
2022-11-15T12:47:06.865Z,1.10
2022-11-15T12:49:47.933Z,1.10
2022-11-15T12:52:16.139Z,1.10
2022-11-15T12:55:06.050Z,1.13
2022-11-15T12:57:45.494Z,1.07
2022-11-15T13:00:43.346Z,0.90
2022-11-15T13:03:25.552Z,1.27
2022-11-15T13:06:07.950Z,1.00
2022-11-15T13:08:50.118Z,1.13
2022-11-15T13:11:51.775Z,0.80
2022-11-15T13:14:42.880Z,1.10
2022-11-15T13:17:31.893Z,1.00
2022-11-15T13:20:02.710Z,1.07
2022-11-15T13:22:49.076Z,0.90
2022-11-15T13:25:20.155Z,0.93
2022-11-15T13:27:48.983Z,1.00
2022-11-15T13:30:22.262Z,0.80
2022-11-15T13:32:50.377Z,0.90
2022-11-15T13:35:22.686Z,1.20
2022-11-15T13:37:51.008Z,1.00
2022-11-15T13:40:34.151Z,0.90
2022-11-15T13:43:02.193Z,0.90
2022-11-15T13:45:31.611Z,0.80
2022-11-15T13:48:00.087Z,0.73
2022-11-15T13:50:29.951Z,0.90
2022-11-15T13:52:59.359Z,0.90
2022-11-15T13:55:27.440Z,1.00
2022-11-15T13:57:56.921Z,0.70
2022-11-15T14:00:36.764Z,0.93
2022-11-15T14:03:09.636Z,0.67
2022-11-15T14:05:37.909Z,1.07
2022-11-15T14:08:14.758Z,1.00
2022-11-15T14:10:42.799Z,1.10
2022-11-15T14:13:14.402Z,1.03
2022-11-15T14:15:43.873Z,1.10
2022-11-15T14:18:43.674Z,1.00
2022-11-15T14:21:11.893Z,0.70
2022-11-15T14:23:39.956Z,0.80
2022-11-15T14:26:12.029Z,1.00
2022-11-15T14:28:40.412Z,0.87
2022-11-15T14:31:14.345Z,0.80
2022-11-15T14:33:42.575Z,0.90
2022-11-15T14:36:14.001Z,0.67
2022-11-15T14:38:43.782Z,0.87
2022-11-15T14:41:18.885Z,0.80
2022-11-15T14:43:46.995Z,1.00
2022-11-15T14:46:16.433Z,1.20
2022-11-15T14:48:44.450Z,1.10
2022-11-15T14:51:14.467Z,1.30
2022-11-15T14:53:43.758Z,1.30
2022-11-15T14:56:11.944Z,1.20
2022-11-15T14:58:40.001Z,2.00
2022-11-15T15:01:13.391Z,1.70
2022-11-15T15:03:44.934Z,1.50
2022-11-15T15:06:17.840Z,1.40
2022-11-15T15:08:46.872Z,1.43
2022-11-15T15:11:17.887Z,1.33
2022-11-15T15:13:45.996Z,1.20
2022-11-15T15:16:14.093Z,1.60
2022-11-15T15:18:44.378Z,1.90
2022-11-15T15:21:20.392Z,1.47
2022-11-15T15:23:48.460Z,1.53
2022-11-15T15:26:16.796Z,1.57
2022-11-15T15:28:44.889Z,1.63
2022-11-15T15:31:13.325Z,1.83
2022-11-15T15:33:41.592Z,1.47
2022-11-15T15:36:13.236Z,1.63
2022-11-15T15:38:42.391Z,1.77
2022-11-15T15:41:12.576Z,1.77
2022-11-15T15:43:41.346Z,1.50
2022-11-15T15:46:11.155Z,1.80
2022-11-15T15:48:40.916Z,1.93
2022-11-15T15:51:20.687Z,1.80
2022-11-15T15:53:49.806Z,1.40
2022-11-15T15:56:18.068Z,1.43
2022-11-15T15:58:46.428Z,2.00
2022-11-15T16:01:15.240Z,1.53
2022-11-15T16:03:43.748Z,1.70
2022-11-15T16:06:37.315Z,1.63
2022-11-15T16:09:20.802Z,1.63
2022-11-15T16:11:49.285Z,2.00
2022-11-15T16:14:17.373Z,1.73
2022-11-15T16:16:45.526Z,1.90
2022-11-15T16:19:14.158Z,1.53
2022-11-15T16:21:43.715Z,1.73
2022-11-15T16:24:12.097Z,1.90
2022-11-15T16:26:40.223Z,2.07
2022-11-15T16:29:10.207Z,1.87
2022-11-15T16:31:38.424Z,1.47
2022-11-15T16:34:07.296Z,2.40
2022-11-15T16:36:35.954Z,2.13
2022-11-15T16:39:06.044Z,1.97
2022-11-15T16:41:34.363Z,2.33
2022-11-15T16:44:02.448Z,1.97
2022-11-15T16:46:30.534Z,3.30
2022-11-15T16:48:58.579Z,2.77
2022-11-15T16:51:26.689Z,2.27
2022-11-15T16:53:54.818Z,2.20
2022-11-15T16:56:33.758Z,1.90
2022-11-15T16:59:02.432Z,2.20
2022-11-15T17:01:32.819Z,2.13
2022-11-15T17:04:12.520Z,2.00
2022-11-15T17:06:41.251Z,2.03
2022-11-15T17:09:11.894Z,1.90
2022-11-15T17:11:41.832Z,2.33
2022-11-15T17:14:10.098Z,2.40
2022-11-15T17:16:42.116Z,2.70
2022-11-15T17:19:14.268Z,2.10
2022-11-15T17:21:42.415Z,2.20
2022-11-15T17:24:10.835Z,1.70
2022-11-15T17:26:40.805Z,1.90
2022-11-15T17:29:10.918Z,2.70
2022-11-15T17:31:39.333Z,1.83
2022-11-15T17:34:07.887Z,1.90
2022-11-15T17:36:36.051Z,1.80
2022-11-15T17:39:04.295Z,1.70
2022-11-15T17:41:32.610Z,1.60
2022-11-15T17:44:01.983Z,1.53
2022-11-15T17:46:31.540Z,1.80
2022-11-15T17:48:59.613Z,1.60
2022-11-15T17:51:27.838Z,1.83
2022-11-15T17:53:56.293Z,1.50
2022-11-15T17:56:25.973Z,1.97
2022-11-15T17:58:54.998Z,1.73
2022-11-15T18:01:24.484Z,1.30
2022-11-15T18:03:54.042Z,1.50
2022-11-15T18:06:22.851Z,1.80
2022-11-15T18:08:55.958Z,1.60
2022-11-15T18:11:24.745Z,1.83
2022-11-15T18:13:54.236Z,1.70
2022-11-15T18:16:24.713Z,1.70
2022-11-15T18:18:54.334Z,1.63
2022-11-15T18:21:23.315Z,1.43
2022-11-15T18:23:53.884Z,1.57
2022-11-15T18:26:26.707Z,1.70
2022-11-15T18:28:55.805Z,1.47
2022-11-15T18:31:25.160Z,1.70
2022-11-15T18:33:54.729Z,1.77
2022-11-15T18:36:23.629Z,1.40
2022-11-15T18:38:55.278Z,1.67
2022-11-15T18:41:25.395Z,1.90
2022-11-15T18:43:53.855Z,1.47
2022-11-15T18:46:23.058Z,1.80
2022-11-15T18:48:51.917Z,1.60
2022-11-15T18:51:21.956Z,1.27
2022-11-15T18:53:50.198Z,1.70
2022-11-15T18:56:19.484Z,1.33
2022-11-15T18:58:49.055Z,1.37
2022-11-15T19:01:17.907Z,1.57
2022-11-15T19:03:47.024Z,1.93
2022-11-15T19:06:17.867Z,1.30
2022-11-15T19:09:02.140Z,1.50
2022-11-15T19:11:31.347Z,1.50
2022-11-15T19:14:00.592Z,1.40
2022-11-15T19:16:29.199Z,1.90
2022-11-15T19:18:57.704Z,1.40
2022-11-15T19:21:26.076Z,1.77
2022-11-15T19:23:54.280Z,1.83
2022-11-15T19:26:24.064Z,1.70
2022-11-15T19:28:52.548Z,1.77
2022-11-15T19:31:20.752Z,1.63
2022-11-15T19:33:48.883Z,1.33
2022-11-15T19:36:17.735Z,1.60
2022-11-15T19:38:45.765Z,1.60
2022-11-15T19:41:25.806Z,1.80
2022-11-15T19:43:54.099Z,1.53
2022-11-15T19:46:23.632Z,1.43
2022-11-15T19:48:51.884Z,1.87
2022-11-15T19:51:21.578Z,1.50
2022-11-15T19:53:49.719Z,1.80
2022-11-15T19:56:18.485Z,1.67
2022-11-15T19:58:48.041Z,1.27
2022-11-15T20:01:18.583Z,1.70
2022-11-15T20:03:47.442Z,1.70
2022-11-15T20:06:17.038Z,1.40
2022-11-15T20:08:45.104Z,1.53
2022-11-15T20:11:13.523Z,1.60
2022-11-15T20:13:44.826Z,1.60
2022-11-15T20:16:16.598Z,1.50
2022-11-15T20:18:44.723Z,1.23
2022-11-15T20:21:13.113Z,1.70
2022-11-15T20:23:41.229Z,1.43
2022-11-15T20:26:09.575Z,1.80
2022-11-15T20:28:38.138Z,1.60
2022-11-15T20:31:06.529Z,1.60
2022-11-15T20:33:38.808Z,1.50
2022-11-15T20:36:07.407Z,1.47
2022-11-15T20:38:35.843Z,1.83
2022-11-15T20:41:04.248Z,1.40
2022-11-15T20:43:32.386Z,1.60
2022-11-15T20:46:00.408Z,1.30
2022-11-15T20:48:28.477Z,1.30
2022-11-15T20:51:06.816Z,1.60
2022-11-15T20:53:35.044Z,1.23
2022-11-15T20:56:08.466Z,1.60
2022-11-15T20:58:36.720Z,1.50
2022-11-15T21:01:04.980Z,2.00
2022-11-15T21:03:33.659Z,1.40
2022-11-15T21:06:01.660Z,1.60
2022-11-15T21:08:52.514Z,1.40
2022-11-15T21:11:39.113Z,1.70
2022-11-15T21:14:09.592Z,1.63
2022-11-15T21:16:38.024Z,1.90
2022-11-15T21:19:06.546Z,1.30
2022-11-15T21:21:34.764Z,1.50
2022-11-15T21:24:05.296Z,1.60
2022-11-15T21:26:33.733Z,1.57
2022-11-15T21:29:01.782Z,1.70
2022-11-15T21:31:29.824Z,1.20
2022-11-15T21:33:57.916Z,1.47
2022-11-15T21:36:26.501Z,1.60
2022-11-15T21:38:54.747Z,1.47
2022-11-15T21:41:24.168Z,1.40
2022-11-15T21:43:52.240Z,1.73
2022-11-15T21:46:20.283Z,1.40
2022-11-15T21:48:48.367Z,1.70
2022-11-15T21:51:16.384Z,1.47
2022-11-15T21:53:44.508Z,1.40
2022-11-15T21:56:12.944Z,1.60
2022-11-15T21:58:42.467Z,1.33
2022-11-15T22:01:28.971Z,1.50
2022-11-15T22:04:00.124Z,1.33
2022-11-15T22:06:28.381Z,1.30
2022-11-15T22:08:56.662Z,1.50
2022-11-15T22:11:24.702Z,1.70
2022-11-15T22:13:54.086Z,1.40
2022-11-15T22:16:22.113Z,1.53
2022-11-15T22:18:50.240Z,1.60
2022-11-15T22:21:18.998Z,1.70
2022-11-15T22:23:47.375Z,1.40
2022-11-15T22:26:22.017Z,1.50
2022-11-15T22:28:51.464Z,1.40
2022-11-15T22:31:20.925Z,1.57
2022-11-15T22:33:48.999Z,1.63
2022-11-15T22:36:17.160Z,1.50
2022-11-15T22:38:45.268Z,1.50
2022-11-15T22:41:13.831Z,1.43
2022-11-15T22:43:41.915Z,1.60
2022-11-15T22:46:10.752Z,1.47
2022-11-15T22:48:40.424Z,1.60
2022-11-15T22:51:08.606Z,1.50
2022-11-15T22:53:36.723Z,1.60
2022-11-15T22:56:06.202Z,1.40
2022-11-15T22:58:37.377Z,1.60
2022-11-15T23:01:06.116Z,1.67
2022-11-15T23:03:34.329Z,1.60
2022-11-15T23:06:04.867Z,1.70
2022-11-15T23:08:32.968Z,1.40
2022-11-15T23:11:19.399Z,1.70
2022-11-15T23:13:47.727Z,1.10
2022-11-15T23:16:25.906Z,1.80
2022-11-15T23:18:54.971Z,1.57
2022-11-15T23:21:43.377Z,1.43
2022-11-15T23:24:11.812Z,2.17
2022-11-15T23:26:39.945Z,1.73
2022-11-15T23:29:09.242Z,1.33
2022-11-15T23:32:01.680Z,1.43
2022-11-15T23:34:30.382Z,1.57
2022-11-15T23:37:00.011Z,1.20
2022-11-15T23:39:28.216Z,1.50
2022-11-15T23:41:56.412Z,1.70
2022-11-15T23:44:24.540Z,1.30
2022-11-15T23:46:52.658Z,1.43
2022-11-15T23:49:20.777Z,1.30
2022-11-15T23:51:48.910Z,1.40
2022-11-15T23:54:18.552Z,1.57
2022-11-15T23:56:46.712Z,1.70
2022-11-15T23:59:14.777Z,1.30
